Time;durP1;ratioP1;P1;durP2;ratioP2;P2;SDS_P1;SDS_P2;PMS_P1;PMS_P2;Temp;Humidity;BMP_temperature;BMP_pressure;BME280_temperature;BME280_humidity;BME280_pressure;Samples;Min_cycle;Max_cycle;Signal;HPM_P1;HPM_P2
2023/04/12 00:01:18;;;;;;;3.28;2.67;;;2.00;99.90;;;;;;5026111;28;20061;-45
2023/04/12 00:03:49;;;;;;;3.08;2.88;;;2.00;99.90;;;;;;5024918;28;20528;-46
2023/04/12 00:06:17;;;;;;;5.75;3.05;;;2.00;99.90;;;;;;5017414;28;20057;-45
2023/04/12 00:08:45;;;;;;;3.58;3.28;;;2.00;99.90;;;;;;5027414;28;20064;-46
2023/04/12 00:11:13;;;;;;;4.80;4.00;;;2.00;99.90;;;;;;5025910;28;20422;-46
2023/04/12 00:13:40;;;;;;;7.40;3.88;;;2.10;99.90;;;;;;5026519;28;20068;-47
2023/04/12 00:16:08;;;;;;;8.82;3.10;;;2.10;99.90;;;;;;5025740;28;20057;-45
2023/04/12 00:18:36;;;;;;;4.60;3.25;;;2.30;99.90;;;;;;5025474;28;20045;-46
2023/04/12 00:21:04;;;;;;;2.67;2.47;;;2.40;99.90;;;;;;5024849;28;20495;-45
2023/04/12 00:23:32;;;;;;;4.90;2.60;;;2.30;99.90;;;;;;5024107;28;20405;-45
2023/04/12 00:26:00;;;;;;;4.18;3.30;;;2.20;99.90;;;;;;5025844;28;20045;-46
2023/04/12 00:28:27;;;;;;;7.88;4.35;;;2.20;99.90;;;;;;5026755;28;20056;-46
2023/04/12 00:30:55;;;;;;;2.80;2.40;;;2.20;99.90;;;;;;5011980;28;20053;-46
2023/04/12 00:33:23;;;;;;;2.72;2.53;;;2.10;99.90;;;;;;5026151;28;20050;-46
2023/04/12 00:35:50;;;;;;;4.88;2.88;;;2.00;99.90;;;;;;5024428;28;20064;-46
2023/04/12 00:38:18;;;;;;;3.95;3.15;;;1.90;99.90;;;;;;5025496;28;20049;-46
2023/04/12 00:40:45;;;;;;;5.50;3.30;;;1.90;99.90;;;;;;5025959;28;20075;-45
2023/04/12 00:43:17;;;;;;;6.30;3.90;;;1.90;99.90;;;;;;5025462;28;20060;-46
2023/04/12 00:45:45;;;;;;;3.45;3.15;;;2.00;99.90;;;;;;5025995;28;20038;-46
2023/04/12 00:48:14;;;;;;;3.85;3.42;;;2.10;99.90;;;;;;5025796;28;20065;-45
2023/04/12 00:50:43;;;;;;;6.30;5.38;;;2.20;99.90;;;;;;5026524;28;20526;-46
2023/04/12 00:53:13;;;;;;;6.38;5.15;;;2.30;99.90;;;;;;5026496;28;20056;-46
2023/04/12 00:55:45;;;;;;;7.53;4.05;;;2.40;99.90;;;;;;5018243;28;20534;-46
2023/04/12 00:58:13;;;;;;;5.97;3.65;;;2.40;99.90;;;;;;5025147;28;20489;-46
2023/04/12 01:00:48;;;;;;;4.47;3.05;;;2.50;99.90;;;;;;5007363;28;20163;-45
2023/04/12 01:03:21;;;;;;;3.38;2.97;;;2.40;99.90;;;;;;5024251;28;20440;-46
2023/04/12 01:06:00;;;;;;;6.55;3.97;;;2.30;99.90;;;;;;5024280;28;20052;-45
2023/04/12 01:08:34;;;;;;;3.53;2.97;;;2.20;99.90;;;;;;5005954;28;20057;-46
2023/04/12 01:11:07;;;;;;;5.25;3.58;;;2.30;99.90;;;;;;5016162;28;20413;-46
2023/04/12 01:14:08;;;;;;;4.47;3.83;;;2.30;99.90;;;;;;5024477;28;20053;-46
2023/04/12 01:16:46;;;;;;;3.45;2.88;;;2.40;99.90;;;;;;4974187;28;20073;-46
2023/04/12 01:19:56;;;;;;;3.67;3.38;;;2.50;99.90;;;;;;5006615;28;20046;-46
2023/04/12 01:22:56;;;;;;;4.90;3.55;;;2.50;99.90;;;;;;5010657;28;20061;-45
2023/04/12 01:25:39;;;;;;;6.20;4.60;;;2.60;99.90;;;;;;5018830;28;20544;-46
2023/04/12 01:28:10;;;;;;;3.60;3.30;;;2.70;99.90;;;;;;5024783;28;20045;-46
2023/04/12 01:30:41;;;;;;;4.82;4.25;;;2.80;99.90;;;;;;5025889;28;20050;-46
2023/04/12 01:33:11;;;;;;;5.47;2.90;;;2.80;99.90;;;;;;5028407;28;20045;-46
2023/04/12 01:35:39;;;;;;;4.28;3.33;;;2.80;99.90;;;;;;5027009;28;20517;-46
2023/04/12 01:38:09;;;;;;;4.43;4.03;;;2.80;99.90;;;;;;5026799;28;20413;-46
2023/04/12 01:40:39;;;;;;;3.95;3.20;;;2.80;99.90;;;;;;5029167;28;20049;-46
2023/04/12 01:43:12;;;;;;;4.40;2.88;;;2.70;99.90;;;;;;5030493;28;20046;-46
2023/04/12 01:45:39;;;;;;;3.53;3.22;;;2.70;99.90;;;;;;5028623;28;20057;-46
2023/04/12 01:48:09;;;;;;;3.88;2.90;;;2.70;99.90;;;;;;5028444;28;20585;-46
2023/04/12 01:50:50;;;;;;;4.32;3.33;;;2.70;99.90;;;;;;5027235;28;20144;-46
2023/04/12 01:53:20;;;;;;;3.45;3.15;;;2.80;99.90;;;;;;5028031;28;20053;-46
2023/04/12 01:55:49;;;;;;;4.40;4.00;;;2.80;99.90;;;;;;5026192;28;20746;-46
2023/04/12 01:58:20;;;;;;;3.45;2.88;;;2.90;99.90;;;;;;5010295;28;20103;-45
2023/04/12 02:00:49;;;;;;;5.82;4.15;;;2.80;99.90;;;;;;5028567;28;20076;-46
2023/04/12 02:03:20;;;;;;;2.80;2.60;;;2.90;99.90;;;;;;5027908;28;20061;-46
2023/04/12 02:05:50;;;;;;;2.85;2.47;;;2.90;99.90;;;;;;5026217;28;20057;-46
2023/04/12 02:08:21;;;;;;;3.85;2.95;;;3.00;99.90;;;;;;5019606;28;20371;-46
2023/04/12 02:10:48;;;;;;;3.42;3.13;;;3.00;99.90;;;;;;4999066;28;20057;-46
2023/04/12 02:13:19;;;;;;;6.85;3.30;;;3.00;99.90;;;;;;5021672;28;20057;-46
2023/04/12 02:15:46;;;;;;;2.83;2.58;;;3.10;99.90;;;;;;5026565;28;20060;-45
2023/04/12 02:18:16;;;;;;;3.17;2.42;;;3.00;99.90;;;;;;5027175;28;20054;-34
2023/04/12 02:20:44;;;;;;;6.00;2.90;;;3.00;99.90;;;;;;5027142;28;20061;-33
2023/04/12 02:23:12;;;;;;;3.55;2.80;;;3.00;99.90;;;;;;5010464;28;20053;-46
2023/04/12 02:25:40;;;;;;;3.35;2.97;;;2.90;99.90;;;;;;5026970;28;20060;-46
2023/04/12 02:28:07;;;;;;;2.75;2.55;;;2.80;99.90;;;;;;5027663;28;20398;-46
2023/04/12 02:30:35;;;;;;;4.68;3.33;;;2.80;99.90;;;;;;5027157;28;20060;-46
2023/04/12 02:33:04;;;;;;;3.20;2.88;;;2.80;99.90;;;;;;5015292;28;20644;-45
2023/04/12 02:35:36;;;;;;;3.97;2.47;;;2.90;99.90;;;;;;5018159;28;20414;-38
2023/04/12 02:38:08;;;;;;;2.67;2.47;;;2.90;99.90;;;;;;5016335;28;20046;-37
2023/04/12 02:40:41;;;;;;;2.83;2.63;;;2.90;99.90;;;;;;5023774;28;20445;-37
2023/04/12 02:43:13;;;;;;;2.83;2.33;;;3.00;99.90;;;;;;5020035;28;20056;-39
2023/04/12 02:45:46;;;;;;;4.35;3.30;;;3.00;99.90;;;;;;5010865;28;20049;-37
2023/04/12 02:48:14;;;;;;;7.22;3.97;;;3.10;99.90;;;;;;5015810;28;20076;-39
2023/04/12 02:50:43;;;;;;;4.03;3.20;;;3.10;99.90;;;;;;5025521;28;20052;-39
2023/04/12 02:53:16;;;;;;;10.73;3.42;;;3.20;99.90;;;;;;4989505;28;20049;-38
2023/04/12 02:55:50;;;;;;;3.28;2.80;;;3.20;99.90;;;;;;5028412;28;20045;-38
2023/04/12 02:58:23;;;;;;;;;;;3.20;99.90;;;;;;5020408;28;20045;-37
2023/04/12 03:00:52;;;;;;;3.05;2.70;;;3.20;99.90;;;;;;5027356;28;19925;-38
2023/04/12 03:03:27;;;;;;;6.68;3.50;;;3.20;99.90;;;;;;5009666;28;20633;-37
2023/04/12 03:05:58;;;;;;;5.60;3.08;;;3.30;99.90;;;;;;5017408;28;20358;-38
2023/04/12 03:08:26;;;;;;;3.17;2.50;;;3.30;99.90;;;;;;5026421;28;20068;-38
2023/04/12 03:10:56;;;;;;;3.60;3.25;;;3.30;99.90;;;;;;5025120;28;20049;-38
2023/04/12 03:13:25;;;;;;;2.55;2.35;;;3.30;99.90;;;;;;5009852;28;20354;-38
2023/04/12 03:15:57;;;;;;;3.97;2.67;;;3.30;99.90;;;;;;5026423;28;20045;-37
2023/04/12 03:18:31;;;;;;;3.17;2.92;;;3.40;99.90;;;;;;5033175;28;20049;-37
2023/04/12 03:21:01;;;;;;;2.75;2.55;;;3.40;99.90;;;;;;5023069;28;20050;-37
2023/04/12 03:23:29;;;;;;;2.97;2.60;;;3.40;99.90;;;;;;5026714;28;20056;-39
2023/04/12 03:26:11;;;;;;;2.13;2.03;;;3.50;99.90;;;;;;5030726;28;20053;-37
2023/04/12 03:28:48;;;;;;;2.33;2.13;;;3.50;99.90;;;;;;5025877;28;20054;-40
2023/04/12 03:31:19;;;;;;;4.70;1.95;;;3.50;99.90;;;;;;5006621;28;20525;-44
2023/04/12 03:33:47;;;;;;;2.47;2.00;;;3.60;99.90;;;;;;5025583;28;20046;-39
2023/04/12 03:36:26;;;;;;;4.28;1.92;;;3.60;99.90;;;;;;5012511;28;20045;-38
2023/04/12 03:39:04;;;;;;;1.55;1.33;;;3.80;99.90;;;;;;5009044;28;20038;-38
2023/04/12 03:41:34;;;;;;;2.78;1.75;;;3.90;99.90;;;;;;5027795;28;20053;-40
2023/04/12 03:44:04;;;;;;;5.05;1.77;;;4.00;99.90;;;;;;5027289;28;20045;-38
2023/04/12 03:46:35;;;;;;;2.13;2.03;;;4.00;99.90;;;;;;5026378;28;20505;-38
2023/04/12 03:49:07;;;;;;;3.72;1.90;;;4.00;99.90;;;;;;5017780;28;20045;-39
2023/04/12 03:51:35;;;;;;;2.92;1.92;;;4.00;99.90;;;;;;5021034;28;20046;-39
2023/04/12 03:54:03;;;;;;;3.50;1.77;;;4.00;99.90;;;;;;5014952;28;20064;-39
2023/04/12 03:56:51;;;;;;;3.08;1.80;;;4.10;99.90;;;;;;5022040;28;20064;-38
2023/04/12 03:59:25;;;;;;;8.23;1.92;;;4.10;99.90;;;;;;5032872;28;20379;-38
2023/04/12 04:01:54;;;;;;;3.55;1.73;;;4.10;99.90;;;;;;5016856;28;20053;-37
2023/04/12 04:04:24;;;;;;;1.38;1.27;;;4.10;99.90;;;;;;5018863;28;20057;-38
2023/04/12 04:06:56;;;;;;;3.00;1.90;;;4.10;99.90;;;;;;5032415;28;20549;-37
2023/04/12 04:09:25;;;;;;;3.63;1.50;;;4.10;99.90;;;;;;5009945;28;20037;-37
2023/04/12 04:11:53;;;;;;;4.97;1.80;;;4.10;99.90;;;;;;5032657;28;20041;-39
2023/04/12 04:14:21;;;;;;;2.58;1.98;;;4.10;99.90;;;;;;5032639;28;20564;-37
2023/04/12 04:16:50;;;;;;;1.85;1.67;;;4.10;99.90;;;;;;5035852;28;20055;-37
2023/04/12 04:19:20;;;;;;;1.75;1.65;;;4.10;99.90;;;;;;5027169;28;20455;-39
2023/04/12 04:21:48;;;;;;;2.42;1.95;;;4.00;99.90;;;;;;5024109;28;20396;-39
2023/04/12 04:24:17;;;;;;;4.45;2.47;;;4.00;99.90;;;;;;5026415;28;20450;-39
2023/04/12 04:26:49;;;;;;;6.57;2.20;;;4.10;99.90;;;;;;5031753;28;20038;-38
2023/04/12 04:29:24;;;;;;;3.90;2.53;;;4.10;99.90;;;;;;5010610;28;20060;-37
2023/04/12 04:31:53;;;;;;;1.48;1.38;;;4.10;99.90;;;;;;5035461;28;20714;-40
2023/04/12 04:34:22;;;;;;;2.97;2.60;;;4.10;99.90;;;;;;5041347;28;20041;-37
2023/04/12 04:36:52;;;;;;;1.70;1.60;;;4.10;99.90;;;;;;5038009;28;20056;-37
2023/04/12 04:39:26;;;;;;;3.03;1.73;;;4.10;99.90;;;;;;5031612;28;20060;-38
2023/04/12 04:41:56;;;;;;;4.25;2.25;;;4.10;99.90;;;;;;5026677;28;20045;-38
2023/04/12 04:44:35;;;;;;;1.70;1.60;;;4.10;99.90;;;;;;5030831;28;20049;-37
2023/04/12 04:47:07;;;;;;;2.05;1.85;;;4.20;99.90;;;;;;5032025;28;20501;-37
2023/04/12 04:49:38;;;;;;;2.20;1.55;;;4.20;99.90;;;;;;5010884;28;20049;-36
2023/04/12 04:52:24;;;;;;;1.27;1.17;;;4.10;99.90;;;;;;5011714;28;20056;-37
2023/04/12 04:54:57;;;;;;;4.57;1.73;;;4.20;99.90;;;;;;5034454;28;20042;-39
2023/04/12 04:57:29;;;;;;;2.67;2.45;;;4.10;99.90;;;;;;5031620;28;20064;-37
2023/04/12 04:59:57;;;;;;;1.98;1.50;;;4.20;99.90;;;;;;5032683;28;20501;-38
2023/04/12 05:02:24;;;;;;;2.20;1.58;;;4.20;99.90;;;;;;5016435;28;20068;-37
2023/04/12 05:04:55;;;;;;;4.55;1.90;;;4.20;99.90;;;;;;5034618;28;20052;-38
2023/04/12 05:07:26;;;;;;;2.22;1.95;;;4.20;99.90;;;;;;5028274;28;20509;-37
2023/04/12 05:09:53;;;;;;;1.92;1.65;;;4.20;99.90;;;;;;5038167;28;20602;-36
2023/04/12 05:12:21;;;;;;;1.67;1.58;;;4.20;99.90;;;;;;5019850;28;20045;-36
2023/04/12 05:14:52;;;;;;;1.67;1.40;;;4.20;99.90;;;;;;5020613;28;20045;-38
2023/04/12 05:17:35;;;;;;;1.73;1.45;;;4.20;99.90;;;;;;5023329;28;20045;-37
2023/04/12 05:20:07;;;;;;;3.75;2.38;;;4.30;99.90;;;;;;5020401;28;20056;-39
2023/04/12 05:22:35;;;;;;;5.30;3.42;;;4.30;99.90;;;;;;5011633;28;20061;-37
2023/04/12 05:25:03;;;;;;;3.42;1.65;;;4.40;99.90;;;;;;5035004;28;20051;-38
2023/04/12 05:27:34;;;;;;;4.35;4.05;;;4.40;99.90;;;;;;5033081;28;20046;-38
2023/04/12 05:30:05;;;;;;;2.65;2.45;;;4.40;99.90;;;;;;5019340;28;20061;-36
2023/04/12 05:32:32;;;;;;;7.15;5.30;;;4.40;99.90;;;;;;5031072;28;20061;-39
2023/04/12 05:35:00;;;;;;;3.80;3.30;;;4.40;99.90;;;;;;5018101;28;20049;-36
2023/04/12 05:37:28;;;;;;;4.32;3.50;;;4.40;99.90;;;;;;5013673;28;20045;-36
2023/04/12 05:39:56;;;;;;;10.73;9.85;;;4.40;99.90;;;;;;5018566;28;20042;-36
2023/04/12 05:42:24;;;;;;;3.38;3.08;;;4.40;99.90;;;;;;5030142;28;20056;-35
2023/04/12 05:44:51;;;;;;;4.47;3.78;;;4.40;99.90;;;;;;5043395;28;20045;-36
2023/04/12 05:47:21;;;;;;;3.58;3.33;;;4.30;99.90;;;;;;5031058;28;20041;-36
2023/04/12 05:49:48;;;;;;;1.88;1.77;;;4.20;99.90;;;;;;5018308;28;20057;-36
2023/04/12 05:52:17;;;;;;;3.70;3.40;;;4.20;99.90;;;;;;5005438;28;20049;-36
2023/04/12 05:54:45;;;;;;;3.70;2.92;;;4.10;99.90;;;;;;5024514;28;20057;-36
2023/04/12 05:57:16;;;;;;;5.35;4.00;;;4.10;99.90;;;;;;5011377;28;20549;-36
2023/04/12 05:59:46;;;;;;;6.93;3.70;;;4.00;99.90;;;;;;5028638;28;20042;-36
2023/04/12 06:02:14;;;;;;;5.18;4.72;;;4.00;99.90;;;;;;5020802;28;20055;-36
2023/04/12 06:04:42;;;;;;;2.42;2.22;;;4.10;99.90;;;;;;5026297;28;20561;-36
2023/04/12 06:07:20;;;;;;;2.25;1.90;;;4.10;99.90;;;;;;5027700;28;20470;-35
2023/04/12 06:09:48;;;;;;;4.15;3.70;;;4.10;99.90;;;;;;5011370;28;20062;-36
2023/04/12 06:12:16;;;;;;;4.68;4.28;;;4.20;99.90;;;;;;5016601;28;20399;-36
2023/04/12 06:14:44;;;;;;;2.92;2.72;;;4.20;99.90;;;;;;5013764;28;20457;-35
2023/04/12 06:17:12;;;;;;;9.55;3.88;;;4.20;99.90;;;;;;5028822;28;20064;-36
2023/04/12 06:19:40;;;;;;;4.53;3.63;;;4.20;99.90;;;;;;5024671;28;20053;-36
2023/04/12 06:22:09;;;;;;;7.15;4.80;;;4.10;99.90;;;;;;5003398;28;20111;-36
2023/04/12 06:24:38;;;;;;;4.18;3.45;;;4.20;99.90;;;;;;5028882;28;20061;-36
2023/04/12 06:27:07;;;;;;;6.80;4.20;;;4.20;99.90;;;;;;5032365;28;20457;-35
2023/04/12 06:29:35;;;;;;;5.05;4.18;;;4.30;99.90;;;;;;5026639;28;20558;-36
2023/04/12 06:32:03;;;;;;;5.07;4.50;;;4.30;99.90;;;;;;5027356;28;20057;-36
2023/04/12 06:34:31;;;;;;;4.28;3.28;;;4.30;99.90;;;;;;5025611;28;20049;-35
2023/04/12 06:37:04;;;;;;;4.93;4.03;;;4.30;99.90;;;;;;5009396;28;20576;-36
2023/04/12 06:39:31;;;;;;;10.00;8.43;;;4.30;99.90;;;;;;5026107;28;20054;-36
2023/04/12 06:42:00;;;;;;;18.15;6.90;;;4.40;99.90;;;;;;5027102;28;20053;-35
2023/04/12 06:44:28;;;;;;;8.35;6.55;;;4.50;99.90;;;;;;5025941;28;20074;-36
2023/04/12 06:46:57;;;;;;;3.30;3.05;;;4.50;99.90;;;;;;5027516;28;20045;-36
2023/04/12 06:49:24;;;;;;;14.23;12.80;;;4.60;99.90;;;;;;5026761;28;20053;-36
2023/04/12 06:51:52;;;;;;;2.65;2.00;;;4.70;99.90;;;;;;5026783;28;20064;-36
2023/04/12 06:54:20;;;;;;;2.90;2.70;;;4.80;99.90;;;;;;5018276;28;20199;-36
2023/04/12 06:56:47;;;;;;;5.93;3.75;;;4.80;99.90;;;;;;5028238;28;20413;-36
2023/04/12 06:59:15;;;;;;;5.47;3.55;;;4.80;99.90;;;;;;5027039;28;20038;-36
2023/04/12 07:01:42;;;;;;;31.42;14.80;;;5.00;99.90;;;;;;5028088;28;20060;-35
2023/04/12 07:04:11;;;;;;;9.68;8.77;;;5.10;99.90;;;;;;5025571;28;20045;-36
2023/04/12 07:06:39;;;;;;;12.07;7.30;;;5.20;99.90;;;;;;5026783;28;20045;-36
2023/04/12 07:09:07;;;;;;;3.97;3.15;;;5.20;99.90;;;;;;5027097;28;20541;-35
2023/04/12 07:11:34;;;;;;;25.77;20.30;;;5.10;99.90;;;;;;5026736;28;20628;-36
2023/04/12 07:14:02;;;;;;;14.90;13.43;;;5.10;99.90;;;;;;5027439;28;20041;-35
2023/04/12 07:16:31;;;;;;;2.20;2.10;;;5.20;99.90;;;;;;5027530;28;20045;-35
2023/04/12 07:18:59;;;;;;;14.85;7.45;;;5.20;99.90;;;;;;5026192;28;20501;-36
2023/04/12 07:21:27;;;;;;;2.70;2.50;;;5.30;99.90;;;;;;5026609;28;20420;-36
2023/04/12 07:23:54;;;;;;;3.85;2.70;;;5.40;99.90;;;;;;5026675;28;20060;-36
2023/04/12 07:26:22;;;;;;;7.68;7.03;;;5.50;99.90;;;;;;5027300;28;20053;-36
2023/04/12 07:28:50;;;;;;;21.98;19.38;;;5.60;99.90;;;;;;5027131;28;20049;-36
2023/04/12 07:31:17;;;;;;;7.40;5.65;;;5.80;99.90;;;;;;5027072;28;20054;-36
2023/04/12 07:33:46;;;;;;;4.50;3.03;;;5.90;99.90;;;;;;5026327;28;20053;-36
2023/04/12 07:36:15;;;;;;;34.85;27.13;;;6.00;99.90;;;;;;5026072;28;20107;-36
2023/04/12 07:38:43;;;;;;;3.42;3.13;;;6.00;99.90;;;;;;5026617;28;20061;-36
2023/04/12 07:41:10;;;;;;;7.63;5.32;;;5.90;99.90;;;;;;5027199;28;20057;-35
2023/04/12 07:43:38;;;;;;;5.28;3.70;;;5.90;99.90;;;;;;5022545;28;20056;-36
2023/04/12 07:46:07;;;;;;;11.20;7.22;;;5.90;99.90;;;;;;5024410;28;20056;-35
2023/04/12 07:48:35;;;;;;;3.60;2.75;;;6.00;99.90;;;;;;5024812;28;20045;-36
2023/04/12 07:51:05;;;;;;;8.15;7.47;;;6.00;99.90;;;;;;5022846;28;20051;-35
2023/04/12 07:53:32;;;;;;;2.83;2.63;;;6.10;99.90;;;;;;5019826;28;20053;-35
2023/04/12 07:56:00;;;;;;;5.35;4.90;;;6.10;99.90;;;;;;5023300;28;20052;-37
2023/04/12 07:58:27;;;;;;;10.77;7.88;;;6.20;99.90;;;;;;5023023;28;20048;-36
2023/04/12 08:00:56;;;;;;;10.18;9.27;;;6.30;99.90;;;;;;5023775;28;20053;-35
2023/04/12 08:03:27;;;;;;;4.75;4.22;;;6.50;99.90;;;;;;5024067;28;20049;-36
2023/04/12 08:05:54;;;;;;;4.20;3.15;;;6.70;99.90;;;;;;5022640;28;20053;-35
2023/04/12 08:08:22;;;;;;;6.63;5.07;;;6.90;99.90;;;;;;5024124;28;20437;-36
2023/04/12 08:10:51;;;;;;;4.78;4.28;;;7.10;99.90;;;;;;5023979;28;20053;-36
2023/04/12 08:13:19;;;;;;;3.00;2.80;;;7.10;99.90;;;;;;5024553;28;20111;-36
2023/04/12 08:15:46;;;;;;;4.18;2.55;;;7.10;99.90;;;;;;5023428;28;20049;-36
2023/04/12 08:18:14;;;;;;;10.18;9.18;;;7.00;99.90;;;;;;5023049;28;20060;-36
2023/04/12 08:20:43;;;;;;;2.97;2.75;;;6.80;99.90;;;;;;5022383;28;20057;-42
2023/04/12 08:23:11;;;;;;;2.58;2.38;;;6.80;99.90;;;;;;5024132;28;20052;-36
2023/04/12 08:25:38;;;;;;;2.70;2.45;;;6.70;99.90;;;;;;5023998;28;20058;-36
2023/04/12 08:28:07;;;;;;;24.17;21.58;;;6.80;99.90;;;;;;5023524;28;20050;-37
2023/04/12 08:30:35;;;;;;;3.67;2.80;;;6.90;99.90;;;;;;5022490;28;20097;-36
2023/04/12 08:33:03;;;;;;;3.15;2.88;;;6.90;99.90;;;;;;5024393;28;20056;-36
2023/04/12 08:35:31;;;;;;;5.18;3.15;;;6.80;99.90;;;;;;5021668;28;20117;-36
2023/04/12 08:38:05;;;;;;;2.67;2.47;;;6.80;99.90;;;;;;5023380;28;20056;-36
2023/04/12 08:40:33;;;;;;;4.13;2.67;;;6.90;99.90;;;;;;5022402;28;20052;-36
2023/04/12 08:43:04;;;;;;;3.15;2.85;;;7.00;99.90;;;;;;5020966;28;20046;-36
2023/04/12 08:45:35;;;;;;;3.40;2.63;;;7.10;99.90;;;;;;5023414;28;20421;-35
2023/04/12 08:48:04;;;;;;;7.65;3.42;;;7.00;99.90;;;;;;5023071;28;20046;-48
2023/04/12 08:50:32;;;;;;;4.13;2.28;;;7.00;99.90;;;;;;5020022;28;20045;-49
2023/04/12 08:53:00;;;;;;;13.93;12.50;;;6.90;99.90;;;;;;5020787;28;20395;-48
2023/04/12 08:55:28;;;;;;;11.70;10.52;;;6.80;99.90;;;;;;5022964;28;20065;-48
2023/04/12 08:57:55;;;;;;;5.88;3.80;;;6.90;99.90;;;;;;5023833;28;20056;-48
2023/04/12 09:00:23;;;;;;;7.95;3.90;;;7.00;99.90;;;;;;5022996;28;20057;-48
2023/04/12 09:02:51;;;;;;;4.57;3.80;;;7.00;99.90;;;;;;5022133;28;20065;-48
2023/04/12 09:05:21;;;;;;;6.75;5.75;;;7.10;99.90;;;;;;5021989;28;20056;-48
2023/04/12 09:07:49;;;;;;;3.20;2.88;;;7.20;99.90;;;;;;5022670;28;20045;-48
2023/04/12 09:10:49;;;;;;;3.80;2.63;;;7.00;99.90;;;;;;5023354;28;20540;-48
2023/04/12 09:13:33;;;;;;;4.88;3.10;;;6.80;99.90;;;;;;5004915;28;20072;-48
2023/04/12 09:16:00;;;;;;;73.43;50.30;;;6.90;99.90;;;;;;5021607;28;20053;-48
2023/04/12 09:18:28;;;;;;;8.13;7.28;;;7.00;99.90;;;;;;5021975;28;20068;-48
2023/04/12 09:21:10;;;;;;;5.40;4.88;;;7.20;99.90;;;;;;5022293;28;20061;-48
2023/04/12 09:23:38;;;;;;;4.15;3.85;;;7.30;99.90;;;;;;5022434;28;20514;-48
2023/04/12 09:26:07;;;;;;;7.93;7.10;;;7.30;99.90;;;;;;5018983;28;20045;-48
2023/04/12 09:28:34;;;;;;;4.95;2.80;;;7.20;99.90;;;;;;5022863;28;20053;-48
2023/04/12 09:31:03;;;;;;;7.30;4.75;;;7.20;99.90;;;;;;5022700;28;20609;-47
2023/04/12 09:33:33;;;;;;;10.60;9.05;;;7.10;99.90;;;;;;5022698;28;20057;-47
2023/04/12 09:36:05;;;;;;;5.85;3.28;;;7.00;99.90;;;;;;5022115;28;20048;-46
2023/04/12 09:38:35;;;;;;;7.00;3.30;;;7.10;99.90;;;;;;5021040;28;20053;-47
2023/04/12 09:41:18;;;;;;;45.50;31.65;;;7.40;99.90;;;;;;5017719;28;20060;-47
2023/04/12 09:43:50;;;;;;;18.27;16.35;;;7.60;99.90;;;;;;5021743;28;20057;-47
2023/04/12 09:46:17;;;;;;;7.65;6.60;;;7.80;99.90;;;;;;5022984;28;20049;-46
2023/04/12 09:48:50;;;;;;;6.90;4.22;;;8.10;99.90;;;;;;5021538;28;20049;-46
2023/04/12 09:51:24;;;;;;;6.00;5.28;;;8.30;99.90;;;;;;5003453;28;20053;-47
2023/04/12 09:53:52;;;;;;;11.50;9.98;;;8.40;99.90;;;;;;5024115;28;20399;-47
2023/04/12 09:56:22;;;;;;;3.22;2.47;;;8.50;99.90;;;;;;5018918;28;20425;-47
2023/04/12 09:58:52;;;;;;;3.92;3.30;;;8.60;99.90;;;;;;5026135;28;20042;-47
2023/04/12 10:01:22;;;;;;;9.55;8.70;;;8.70;99.90;;;;;;5025994;28;20064;-45
2023/04/12 10:03:49;;;;;;;7.50;5.07;;;8.60;99.90;;;;;;5022319;28;20544;-46
2023/04/12 10:06:17;;;;;;;3.33;3.13;;;8.60;99.90;;;;;;5024381;28;20075;-46
2023/04/12 10:08:45;;;;;;;3.75;3.45;;;8.60;99.90;;;;;;5026324;28;20446;-47
2023/04/12 10:11:13;;;;;;;5.18;3.35;;;8.80;99.90;;;;;;5024108;28;20041;-46
2023/04/12 10:13:42;;;;;;;1.73;1.63;;;8.90;99.90;;;;;;5024697;28;20128;-46
2023/04/12 10:16:12;;;;;;;2.55;2.22;;;9.00;99.90;;;;;;5030579;28;20549;-46
2023/04/12 10:18:42;;;;;;;5.97;3.15;;;9.10;99.90;;;;;;5024698;28;20053;-46
2023/04/12 10:21:11;;;;;;;5.93;2.67;;;9.20;99.90;;;;;;5024800;28;20245;-47
2023/04/12 10:23:38;;;;;;;2.97;2.20;;;9.20;99.90;;;;;;5022801;28;20053;-45
2023/04/12 10:26:06;;;;;;;3.65;3.15;;;9.10;99.90;;;;;;5028544;28;20046;-46
2023/04/12 10:28:35;;;;;;;4.97;2.42;;;9.10;99.90;;;;;;5028409;28;20056;-46
2023/04/12 10:31:26;;;;;;;3.53;3.22;;;9.30;99.90;;;;;;5024365;28;20528;-46
2023/04/12 10:33:54;;;;;;;3.25;3.03;;;9.70;99.90;;;;;;5023322;28;20053;-46
2023/04/12 10:36:51;;;;;;;4.18;3.58;;;10.30;99.90;;;;;;5024048;28;20053;-46
2023/04/12 10:39:38;;;;;;;21.10;14.10;;;10.60;99.90;;;;;;5021779;28;20054;-47
2023/04/12 10:42:19;;;;;;;15.73;13.50;;;10.20;99.90;;;;;;5023232;28;20056;-45
2023/04/12 10:44:47;;;;;;;26.25;14.52;;;10.10;99.90;;;;;;5025163;28;20133;-46
2023/04/12 10:47:16;;;;;;;15.85;14.27;;;10.00;99.90;;;;;;5025191;28;20053;-46
2023/04/12 10:50:25;;;;;;;5.40;3.00;;;10.00;99.90;;;;;;5022577;28;20457;-47
2023/04/12 10:53:17;;;;;;;3.67;2.05;;;10.10;99.90;;;;;;4965237;28;20695;-46
2023/04/12 10:55:44;;;;;;;3.90;2.95;;;10.30;99.90;;;;;;5018784;28;20052;-47
2023/04/12 10:58:48;;;;;;;6.97;5.88;;;10.40;99.90;;;;;;5006628;28;20049;-47
2023/04/12 11:01:20;;;;;;;;;;;10.90;99.90;;;;;;5012481;28;20077;-46
2023/04/12 11:04:14;;;;;;;3.25;2.20;;;11.50;99.90;;;;;;5022365;28;19925;-46
2023/04/12 11:06:52;;;;;;;2.47;2.28;;;11.40;99.90;;;;;;4999256;28;20049;-47
2023/04/12 11:09:59;;;;;;;3.67;3.38;;;11.70;99.90;;;;;;4978558;28;20054;-47
2023/04/12 11:12:38;;;;;;;1.75;1.65;;;11.90;99.90;;;;;;4983673;28;20049;-45
2023/04/12 11:15:06;;;;;;;3.42;3.22;;;11.80;99.90;;;;;;5022133;28;20041;-46
2023/04/12 11:17:53;;;;;;;4.25;3.92;;;11.80;99.90;;;;;;5018537;28;20060;-46
2023/04/12 11:20:21;;;;;;;3.20;3.00;;;11.90;99.90;;;;;;5017438;28;20421;-47
2023/04/12 11:22:50;;;;;;;4.13;1.83;;;11.90;99.90;;;;;;5022731;28;20057;-46
2023/04/12 11:25:18;;;;;;;9.35;1.88;;;12.10;99.90;;;;;;5023244;28;20057;-46
2023/04/12 11:27:50;;;;;;;3.22;2.53;;;12.10;99.90;;;;;;5023003;28;20520;-46
2023/04/12 11:30:19;;;;;;;1.52;1.42;;;11.90;99.90;;;;;;5022493;28;20049;-47
2023/04/12 11:32:46;;;;;;;1.77;1.67;;;11.90;99.90;;;;;;5023223;28;20060;-46
2023/04/12 11:35:15;;;;;;;6.47;5.18;;;12.20;99.90;;;;;;5021755;28;20446;-47
2023/04/12 11:37:43;;;;;;;3.50;2.13;;;12.30;99.90;;;;;;5005385;28;20061;-46
2023/04/12 11:40:11;;;;;;;6.93;5.93;;;12.70;99.90;;;;;;5023171;28;20502;-47
2023/04/12 11:42:39;;;;;;;1.67;1.58;;;12.70;99.90;;;;;;5022698;28;20049;-47
2023/04/12 11:45:10;;;;;;;2.65;1.98;;;12.70;99.90;;;;;;5023532;28;20041;-46
2023/04/12 11:47:45;;;;;;;1.58;1.48;;;12.60;99.90;;;;;;5021848;28;20502;-47
2023/04/12 11:50:27;;;;;;;2.60;2.40;;;12.40;99.90;;;;;;5021299;28;20048;-46
2023/04/12 11:53:07;;;;;;;1.67;1.58;;;12.40;99.90;;;;;;5023609;28;20076;-46
2023/04/12 11:55:35;;;;;;;3.45;2.03;;;12.60;99.90;;;;;;5023702;28;20407;-47
2023/04/12 11:58:02;;;;;;;3.28;2.83;;;13.10;99.90;;;;;;5022844;28;20049;-47
2023/04/12 12:00:30;;;;;;;4.78;4.40;;;13.20;99.90;;;;;;5023050;28;20062;-47
2023/04/12 12:02:58;;;;;;;4.47;1.70;;;13.20;99.90;;;;;;5023320;28;20057;-47
2023/04/12 12:05:39;;;;;;;1.15;1.00;;;13.10;99.90;;;;;;5023418;28;20049;-47
2023/04/12 12:08:08;;;;;;;11.15;1.88;;;13.10;99.90;;;;;;5022913;28;20290;-47
2023/04/12 12:10:38;;;;;;;4.13;2.00;;;13.10;99.90;;;;;;5006876;28;20053;-47
2023/04/12 12:13:27;;;;;;;1.33;0.90;;;13.10;99.90;;;;;;5022435;28;20387;-46
2023/04/12 12:15:56;;;;;;;6.25;5.65;;;13.00;99.90;;;;;;5020443;28;20048;-47
2023/04/12 12:18:27;;;;;;;1.15;1.15;;;12.90;99.90;;;;;;5020543;28;20052;-47
2023/04/12 12:20:56;;;;;;;1.77;1.48;;;12.80;99.90;;;;;;5017136;28;20283;-47
2023/04/12 12:23:30;;;;;;;1.63;1.17;;;12.80;99.90;;;;;;5022245;28;20046;-47
2023/04/12 12:25:59;;;;;;;2.10;2.00;;;12.80;99.90;;;;;;5022539;28;20057;-47
2023/04/12 12:28:51;;;;;;;1.20;1.10;;;12.80;99.90;;;;;;5021144;28;20053;-47
2023/04/12 12:31:21;;;;;;;2.90;2.70;;;12.80;99.90;;;;;;5014559;28;20050;-47
2023/04/12 12:33:54;;;;;;;1.25;0.88;;;12.70;99.90;;;;;;5020700;28;20049;-47
2023/04/12 12:36:30;;;;;;;0.98;0.93;;;12.80;99.90;;;;;;5020949;28;20052;-47
2023/04/12 12:39:14;;;;;;;1.95;1.00;;;12.90;99.90;;;;;;5021136;28;20045;-46
2023/04/12 12:41:41;;;;;;;1.08;0.70;;;12.80;99.90;;;;;;5021756;28;20407;-47
2023/04/12 12:44:11;;;;;;;14.05;7.93;;;12.80;99.90;;;;;;5021413;28;20498;-47
2023/04/12 12:46:38;;;;;;;3.60;2.10;;;12.70;99.90;;;;;;5016101;28;20049;-47
2023/04/12 12:49:21;;;;;;;5.78;1.98;;;12.80;99.90;;;;;;5019266;28;20065;-47
2023/04/12 12:51:50;;;;;;;5.43;3.03;;;12.80;99.90;;;;;;5021103;28;20326;-46
2023/04/12 12:54:18;;;;;;;1.33;1.23;;;12.80;99.90;;;;;;5021416;28;20056;-47
2023/04/12 12:57:03;;;;;;;0.80;0.75;;;12.90;99.90;;;;;;5022208;28;20516;-47
2023/04/12 12:59:30;;;;;;;2.05;1.00;;;13.10;99.90;;;;;;5020345;28;20080;-47
2023/04/12 13:01:58;;;;;;;1.42;1.33;;;13.20;99.90;;;;;;5021272;28;20084;-47
2023/04/12 13:04:26;;;;;;;3.38;1.73;;;13.20;99.90;;;;;;5020100;28;20060;-46
2023/04/12 13:06:53;;;;;;;3.40;1.27;;;13.30;99.90;;;;;;5021550;28;20053;-47
2023/04/12 13:09:21;;;;;;;14.52;7.00;;;13.40;99.90;;;;;;5021230;28;20080;-47
2023/04/12 13:11:48;;;;;;;4.03;1.50;;;13.40;99.90;;;;;;5021285;28;20053;-47
2023/04/12 13:14:16;;;;;;;1.10;1.10;;;13.60;99.90;;;;;;5020496;28;20128;-47